createdAt,value
2018-12-29T00:00:50.683Z,3.52
2018-12-29T00:01:50.591Z,3.51
2018-12-29T00:02:50.515Z,3.56
2018-12-29T00:03:50.449Z,3.55
2018-12-29T00:04:50.398Z,3.58
2018-12-29T00:05:50.366Z,3.58
2018-12-29T00:06:50.285Z,3.47
2018-12-29T00:07:50.235Z,3.51
2018-12-29T00:08:50.179Z,3.48
2018-12-29T00:09:50.120Z,3.58
2018-12-29T00:10:50.090Z,3.54
2018-12-29T00:11:50.009Z,3.51
2018-12-29T00:12:49.956Z,3.58
2018-12-29T00:13:49.889Z,3.59
2018-12-29T00:14:54.907Z,3.61
2018-12-29T00:15:49.830Z,3.59
2018-12-29T00:16:49.743Z,3.51
2018-12-29T00:17:49.665Z,3.61
2018-12-29T00:18:49.611Z,3.52
2018-12-29T00:19:49.593Z,3.52
2018-12-29T00:20:49.525Z,3.59
2018-12-29T00:21:49.455Z,3.56
2018-12-29T00:22:49.407Z,3.51
2018-12-29T00:23:49.325Z,3.59
2018-12-29T00:24:49.271Z,3.56
2018-12-29T00:25:49.240Z,3.58
2018-12-29T00:26:49.194Z,3.64
2018-12-29T00:27:49.135Z,3.64
2018-12-29T00:28:49.046Z,3.61
2018-12-29T00:29:49.038Z,3.65
2018-12-29T00:30:48.940Z,3.65
2018-12-29T00:31:48.909Z,3.59
2018-12-29T00:32:48.834Z,3.62
2018-12-29T00:33:48.769Z,3.66
2018-12-29T00:34:48.728Z,3.59
2018-12-29T00:35:48.673Z,3.64
2018-12-29T00:36:48.651Z,3.65
2018-12-29T00:37:48.541Z,3.61
2018-12-29T00:38:48.488Z,3.62
2018-12-29T00:39:48.479Z,3.68
2018-12-29T00:40:48.389Z,3.59
2018-12-29T00:41:48.366Z,3.59
2018-12-29T00:42:48.274Z,3.68
2018-12-29T00:43:48.203Z,3.61
2018-12-29T00:44:48.148Z,3.61
2018-12-29T00:45:48.097Z,3.64
2018-12-29T00:46:48.056Z,3.59
2018-12-29T00:47:47.984Z,3.64
2018-12-29T00:48:47.919Z,3.64
2018-12-29T00:49:47.909Z,3.66
2018-12-29T00:50:47.825Z,3.68
2018-12-29T00:51:47.786Z,3.66
2018-12-29T00:52:47.695Z,3.72
2018-12-29T00:53:47.632Z,3.68
2018-12-29T00:54:47.588Z,3.64
2018-12-29T00:55:47.531Z,3.66
2018-12-29T00:56:47.511Z,3.58
2018-12-29T00:57:47.421Z,3.70
2018-12-29T00:58:47.348Z,3.72
2018-12-29T00:59:47.304Z,3.68
2018-12-29T01:00:47.263Z,3.66
2018-12-29T01:01:47.214Z,3.66
2018-12-29T01:02:47.150Z,3.72
2018-12-29T01:03:47.070Z,3.64
2018-12-29T01:04:47.017Z,3.70
2018-12-29T01:05:46.999Z,3.68
2018-12-29T01:06:46.936Z,3.73
2018-12-29T01:07:46.863Z,3.72
2018-12-29T01:08:46.800Z,3.68
2018-12-29T01:09:46.745Z,3.64
2018-12-29T01:10:46.684Z,3.74
2018-12-29T01:11:46.663Z,3.73
2018-12-29T01:12:46.565Z,3.64
2018-12-29T01:13:46.601Z,3.73
2018-12-29T01:14:46.461Z,3.65
2018-12-29T01:15:46.413Z,3.70
2018-12-29T01:16:46.389Z,3.68
2018-12-29T01:17:46.296Z,3.70
2018-12-29T01:18:46.239Z,3.72
2018-12-29T01:19:46.175Z,3.70
2018-12-29T01:20:46.116Z,3.65
2018-12-29T01:21:46.083Z,3.65
2018-12-29T01:22:46.011Z,3.74
2018-12-29T01:23:45.948Z,3.74
2018-12-29T01:24:45.897Z,3.68
2018-12-29T01:25:45.844Z,3.73
2018-12-29T01:26:45.842Z,3.77
2018-12-29T01:27:45.736Z,3.74
2018-12-29T01:28:45.692Z,3.68
2018-12-29T01:29:45.655Z,3.72
2018-12-29T01:30:45.564Z,3.72
2018-12-29T01:31:45.549Z,3.68
2018-12-29T01:32:45.442Z,3.72
2018-12-29T01:33:45.376Z,3.74
2018-12-29T01:34:45.339Z,3.73
2018-12-29T01:35:45.292Z,3.80
2018-12-29T01:36:45.307Z,3.77
2018-12-29T01:37:45.160Z,3.73
2018-12-29T01:38:45.133Z,3.76
2018-12-29T01:39:45.051Z,3.77
2018-12-29T01:40:44.986Z,3.77
2018-12-29T01:41:44.942Z,3.79
2018-12-29T01:42:44.918Z,3.80
2018-12-29T01:43:44.828Z,3.77
2018-12-29T01:44:44.764Z,3.83
2018-12-29T01:45:44.713Z,3.83
2018-12-29T01:46:44.670Z,3.88
2018-12-29T01:47:44.659Z,3.80
2018-12-29T01:48:44.547Z,3.84
2018-12-29T01:49:44.503Z,3.82
2018-12-29T01:50:44.437Z,3.82
2018-12-29T01:51:44.392Z,3.83
2018-12-29T01:52:44.336Z,3.83
2018-12-29T01:53:44.292Z,3.86
2018-12-29T01:54:44.198Z,3.88
2018-12-29T01:55:44.148Z,3.84
2018-12-29T01:56:44.092Z,3.86
2018-12-29T01:57:44.083Z,3.84
2018-12-29T01:58:43.977Z,3.80
2018-12-29T01:59:43.921Z,3.80
2018-12-29T02:00:43.881Z,3.82
2018-12-29T02:01:43.810Z,3.82
2018-12-29T02:02:43.789Z,3.86
2018-12-29T02:03:43.702Z,3.88
2018-12-29T02:04:43.646Z,3.86
2018-12-29T02:05:43.603Z,3.80
2018-12-29T02:06:43.539Z,3.84
2018-12-29T02:07:43.514Z,3.84
2018-12-29T02:08:43.429Z,3.86
2018-12-29T02:09:43.374Z,3.86
2018-12-29T02:10:43.317Z,3.84
2018-12-29T02:11:43.255Z,3.88
2018-12-29T02:12:43.256Z,3.86
2018-12-29T02:13:43.141Z,3.84
2018-12-29T02:14:43.097Z,3.80
2018-12-29T02:15:43.020Z,3.82
2018-12-29T02:16:42.971Z,3.91
2018-12-29T02:17:42.943Z,3.82
2018-12-29T02:18:42.850Z,3.91
2018-12-29T02:19:42.820Z,3.86
2018-12-29T02:20:42.761Z,3.94
2018-12-29T02:21:42.706Z,3.92
2018-12-29T02:22:42.659Z,3.94
2018-12-29T02:23:42.574Z,3.94
2018-12-29T02:24:42.538Z,3.94
2018-12-29T02:25:42.459Z,3.97
2018-12-29T02:26:42.417Z,3.94
2018-12-29T02:27:42.380Z,3.90
2018-12-29T02:28:42.295Z,3.94
2018-12-29T02:29:42.247Z,3.94
2018-12-29T02:30:42.213Z,3.94
2018-12-29T02:31:42.133Z,4.05
2018-12-29T02:32:42.101Z,4.00
2018-12-29T02:33:42.039Z,3.92
2018-12-29T02:34:41.957Z,3.97
2018-12-29T02:35:41.920Z,4.01
2018-12-29T02:36:41.850Z,3.98
2018-12-29T02:37:41.843Z,4.05
2018-12-29T02:38:41.732Z,4.00
2018-12-29T02:39:41.686Z,3.94
2018-12-29T02:40:41.627Z,4.01
2018-12-29T02:41:41.590Z,3.97
2018-12-29T02:42:41.541Z,3.97
2018-12-29T02:43:41.459Z,3.98
2018-12-29T02:44:41.416Z,4.02
2018-12-29T02:45:41.347Z,4.09
2018-12-29T02:46:41.307Z,3.97
2018-12-29T02:47:41.248Z,4.04
2018-12-29T02:48:41.171Z,3.95
2018-12-29T02:49:41.123Z,4.01
2018-12-29T02:50:41.063Z,4.00
2018-12-29T02:51:41.014Z,4.01
2018-12-29T02:52:40.980Z,4.01
2018-12-29T02:53:40.902Z,4.08
2018-12-29T02:54:40.840Z,4.04
2018-12-29T02:55:40.778Z,4.00
2018-12-29T02:56:40.737Z,4.04
2018-12-29T02:57:40.710Z,4.04
2018-12-29T02:58:40.632Z,3.98
2018-12-29T02:59:40.573Z,4.00
2018-12-29T03:00:40.499Z,4.01
2018-12-29T03:01:40.460Z,4.01
2018-12-29T03:02:40.432Z,4.01
2018-12-29T03:03:40.373Z,4.01
2018-12-29T03:04:40.284Z,4.00
2018-12-29T03:05:40.245Z,4.02
2018-12-29T03:06:40.157Z,4.00
2018-12-29T03:07:40.170Z,4.04
2018-12-29T03:08:40.054Z,4.01
2018-12-29T03:09:40.007Z,4.04
2018-12-29T03:10:39.959Z,4.05
2018-12-29T03:11:39.889Z,4.01
2018-12-29T03:12:39.861Z,4.00
2018-12-29T03:13:39.774Z,3.97
2018-12-29T03:14:39.722Z,4.04
2018-12-29T03:15:41.661Z,4.09
2018-12-29T03:16:39.608Z,4.05
2018-12-29T03:17:39.595Z,4.13
2018-12-29T03:18:39.497Z,4.01
2018-12-29T03:19:39.431Z,4.04
2018-12-29T03:20:39.424Z,3.98
2018-12-29T03:21:39.338Z,3.98
2018-12-29T03:22:39.313Z,4.00
2018-12-29T03:23:39.218Z,4.01
2018-12-29T03:24:39.153Z,4.04
2018-12-29T03:25:39.133Z,4.13
2018-12-29T03:26:39.044Z,4.05
2018-12-29T03:27:39.001Z,4.04
2018-12-29T03:28:38.956Z,4.01
2018-12-29T03:29:38.872Z,4.10
2018-12-29T03:30:38.817Z,4.13
2018-12-29T03:31:38.764Z,4.04
2018-12-29T03:32:38.717Z,4.02
2018-12-29T03:33:38.673Z,4.12
2018-12-29T03:34:38.593Z,4.13
2018-12-29T03:35:38.542Z,4.04
2018-12-29T03:36:38.479Z,4.09
2018-12-29T03:37:38.447Z,4.10
2018-12-29T03:38:38.390Z,4.08
2018-12-29T03:39:38.336Z,4.13
2018-12-29T03:40:38.274Z,4.12
2018-12-29T03:41:38.200Z,4.10
2018-12-29T03:42:38.163Z,4.10
2018-12-29T03:43:38.189Z,4.12
2018-12-29T03:44:38.029Z,4.16
2018-12-29T03:45:37.976Z,4.18
2018-12-29T03:46:37.923Z,4.15
2018-12-29T03:47:37.871Z,4.10
2018-12-29T03:48:37.835Z,4.12
2018-12-29T03:49:37.763Z,4.10
2018-12-29T03:50:37.696Z,4.13
2018-12-29T03:51:37.642Z,4.10
2018-12-29T03:52:37.586Z,4.12
2018-12-29T03:53:44.748Z,4.15
2018-12-29T03:54:37.466Z,4.08
2018-12-29T03:55:37.415Z,4.15
2018-12-29T03:56:37.382Z,4.12
2018-12-29T03:57:37.300Z,4.09
2018-12-29T03:58:37.328Z,4.12
2018-12-29T03:59:37.188Z,4.12
2018-12-29T04:00:37.131Z,4.13
2018-12-29T04:01:37.073Z,4.13
2018-12-29T04:02:37.018Z,4.10
2018-12-29T04:03:36.988Z,4.15
2018-12-29T04:04:36.906Z,4.02
2018-12-29T04:05:36.848Z,4.15
2018-12-29T04:06:36.794Z,4.13
2018-12-29T04:07:36.738Z,4.15
2018-12-29T04:08:36.715Z,4.09
2018-12-29T04:09:36.627Z,4.12
2018-12-29T04:10:36.568Z,4.12
2018-12-29T04:11:36.515Z,4.09
2018-12-29T04:12:36.457Z,4.12
2018-12-29T04:13:36.440Z,4.09
2018-12-29T04:14:36.354Z,4.10
2018-12-29T04:15:36.293Z,4.10
2018-12-29T04:16:36.232Z,4.09
2018-12-29T04:17:36.176Z,4.12
2018-12-29T04:18:36.121Z,4.09
2018-12-29T04:19:36.091Z,4.10
2018-12-29T04:20:36.013Z,4.09
2018-12-29T04:21:35.951Z,4.12
2018-12-29T04:22:35.897Z,4.18
2018-12-29T04:23:35.839Z,4.13
2018-12-29T04:24:35.810Z,4.13
2018-12-29T04:25:35.739Z,4.20
2018-12-29T04:26:35.675Z,4.22
2018-12-29T04:27:35.621Z,4.28
2018-12-29T04:28:35.559Z,4.22
2018-12-29T04:29:35.527Z,4.22
2018-12-29T04:30:35.447Z,4.19
2018-12-29T04:31:35.393Z,4.22
2018-12-29T04:32:35.340Z,4.27
2018-12-29T04:33:35.281Z,4.28
2018-12-29T04:34:35.249Z,4.28
2018-12-29T04:35:35.167Z,4.23
2018-12-29T04:36:35.111Z,4.19
2018-12-29T04:37:35.059Z,4.19
2018-12-29T04:38:34.997Z,4.26
2018-12-29T04:39:34.968Z,4.30
2018-12-29T04:40:34.889Z,4.34
2018-12-29T04:41:34.836Z,4.20
2018-12-29T04:42:34.771Z,4.19
2018-12-29T04:43:34.719Z,4.26
2018-12-29T04:44:34.683Z,4.22
2018-12-29T04:45:34.611Z,4.28
2018-12-29T04:46:34.553Z,4.31
2018-12-29T04:47:34.497Z,4.26
2018-12-29T04:48:34.439Z,4.33
2018-12-29T04:49:34.407Z,4.34
2018-12-29T04:50:34.327Z,4.26
2018-12-29T04:51:34.272Z,4.33
2018-12-29T04:52:34.217Z,4.26
2018-12-29T04:53:34.158Z,4.30
2018-12-29T04:54:34.125Z,4.28
2018-12-29T04:55:34.050Z,4.31
2018-12-29T04:56:33.992Z,4.34
2018-12-29T04:57:33.936Z,4.34
2018-12-29T04:58:33.879Z,4.34
2018-12-29T04:59:33.845Z,4.37
2018-12-29T05:00:33.773Z,4.27
2018-12-29T05:01:33.714Z,4.33
2018-12-29T05:02:33.655Z,4.37
2018-12-29T05:03:33.599Z,4.34
2018-12-29T05:04:33.567Z,4.37
2018-12-29T05:05:33.489Z,4.37
2018-12-29T05:06:33.429Z,4.37
2018-12-29T05:07:33.378Z,4.35
2018-12-29T05:08:33.318Z,4.28
2018-12-29T05:09:33.287Z,4.38
2018-12-29T05:10:33.210Z,4.38
2018-12-29T05:11:33.151Z,4.35
2018-12-29T05:12:33.096Z,4.34
2018-12-29T05:13:33.041Z,4.28
2018-12-29T05:14:33.006Z,4.34
2018-12-29T05:15:32.927Z,4.38
2018-12-29T05:16:32.871Z,4.38
2018-12-29T05:17:32.820Z,4.33
2018-12-29T05:18:32.760Z,4.41
2018-12-29T05:19:32.728Z,4.28
2018-12-29T05:20:32.647Z,4.31
2018-12-29T05:21:32.593Z,4.33
2018-12-29T05:22:32.538Z,4.30
2018-12-29T05:23:32.483Z,4.31
2018-12-29T05:24:32.449Z,4.34
2018-12-29T05:25:32.372Z,4.41
2018-12-29T05:26:32.313Z,4.35
2018-12-29T05:27:32.257Z,4.33
2018-12-29T05:28:32.200Z,4.38
2018-12-29T05:29:32.170Z,4.43
2018-12-29T05:30:32.096Z,4.33
2018-12-29T05:31:32.043Z,4.40
2018-12-29T05:32:31.976Z,4.37
2018-12-29T05:33:31.922Z,4.41
2018-12-29T05:34:31.893Z,4.37
2018-12-29T05:35:31.837Z,4.41
2018-12-29T05:36:31.757Z,4.43
2018-12-29T05:37:31.698Z,4.38
2018-12-29T05:38:31.643Z,4.37
2018-12-29T05:39:31.588Z,4.37
2018-12-29T05:40:31.559Z,4.40
2018-12-29T05:41:31.480Z,4.38
2018-12-29T05:42:31.422Z,4.31
2018-12-29T05:43:31.363Z,4.40
2018-12-29T05:44:31.307Z,4.40
2018-12-29T05:45:31.278Z,4.35
2018-12-29T05:46:31.197Z,4.40
2018-12-29T05:47:31.142Z,4.33
2018-12-29T05:48:31.086Z,4.38
2018-12-29T05:49:31.030Z,4.37
2018-12-29T05:50:31.020Z,4.40
2018-12-29T05:51:30.915Z,4.37
2018-12-29T05:52:30.861Z,4.40
2018-12-29T05:53:30.807Z,4.43
2018-12-29T05:54:30.749Z,4.41
2018-12-29T05:55:30.717Z,4.33
2018-12-29T05:56:30.641Z,4.48
2018-12-29T05:57:30.580Z,4.46
2018-12-29T05:58:30.530Z,4.52
2018-12-29T05:59:30.473Z,4.46
2018-12-29T06:00:30.439Z,4.43
2018-12-29T06:01:30.358Z,4.49
2018-12-29T06:02:30.304Z,4.49
2018-12-29T06:03:30.248Z,4.48
2018-12-29T06:04:30.193Z,4.51
2018-12-29T06:05:30.160Z,4.45
2018-12-29T06:06:30.081Z,4.51
2018-12-29T06:07:30.026Z,4.48
2018-12-29T06:08:29.987Z,4.48
2018-12-29T06:09:29.910Z,4.53
2018-12-29T06:10:29.935Z,4.49
2018-12-29T06:11:29.799Z,4.48
2018-12-29T06:12:29.744Z,4.55
2018-12-29T06:13:29.688Z,4.56
2018-12-29T06:14:29.634Z,4.55
2018-12-29T06:15:29.602Z,4.52
2018-12-29T06:16:29.527Z,4.51
2018-12-29T06:17:29.465Z,4.55
2018-12-29T06:18:29.414Z,4.55
2018-12-29T06:19:29.356Z,4.55
2018-12-29T06:20:29.321Z,4.56
2018-12-29T06:21:29.241Z,4.43
2018-12-29T06:22:29.186Z,4.52
2018-12-29T06:23:29.130Z,4.53
2018-12-29T06:24:29.075Z,4.56
2018-12-29T06:25:29.044Z,4.43
2018-12-29T06:26:28.961Z,4.52
2018-12-29T06:27:28.909Z,4.52
2018-12-29T06:28:28.853Z,4.43
2018-12-29T06:29:28.798Z,4.52
2018-12-29T06:30:28.763Z,4.49
2018-12-29T06:31:28.684Z,4.55
2018-12-29T06:32:28.630Z,4.58
2018-12-29T06:33:28.572Z,4.56
2018-12-29T06:34:28.520Z,4.58
2018-12-29T06:35:28.487Z,4.48
2018-12-29T06:36:28.406Z,4.52
2018-12-29T06:37:28.353Z,4.55
2018-12-29T06:38:28.292Z,4.58
2018-12-29T06:39:28.239Z,4.55
2018-12-29T06:40:28.205Z,4.58
2018-12-29T06:41:28.129Z,4.55
2018-12-29T06:42:28.070Z,4.46
2018-12-29T06:43:28.015Z,4.52
2018-12-29T06:44:27.958Z,4.51
2018-12-29T06:45:27.923Z,4.58
2018-12-29T06:46:34.735Z,4.59
2018-12-29T06:47:27.789Z,4.52
2018-12-29T06:48:27.734Z,4.55
2018-12-29T06:49:27.678Z,4.46
2018-12-29T06:50:27.657Z,4.52
2018-12-29T06:51:27.567Z,4.55
2018-12-29T06:52:27.511Z,4.49
2018-12-29T06:53:27.456Z,4.59
2018-12-29T06:54:27.400Z,4.63
2018-12-29T06:55:27.345Z,4.59
2018-12-29T06:56:27.312Z,4.61
2018-12-29T06:57:27.230Z,4.51
2018-12-29T06:58:27.178Z,4.53
2018-12-29T06:59:27.120Z,4.48
2018-12-29T07:00:27.064Z,4.61
2018-12-29T07:01:27.033Z,4.58
2018-12-29T07:02:26.954Z,4.61
2018-12-29T07:03:26.898Z,4.64
2018-12-29T07:04:26.845Z,4.64
2018-12-29T07:05:26.787Z,4.52
2018-12-29T07:06:26.758Z,4.58
2018-12-29T07:07:26.674Z,4.64
2018-12-29T07:08:26.617Z,4.59
2018-12-29T07:09:26.562Z,4.66
2018-12-29T07:10:26.508Z,4.58
2018-12-29T07:11:26.475Z,4.59
2018-12-29T07:12:26.396Z,4.61
2018-12-29T07:13:26.337Z,4.52
2018-12-29T07:14:26.285Z,4.59
2018-12-29T07:15:26.229Z,4.66
2018-12-29T07:16:26.198Z,4.58
2018-12-29T07:17:26.114Z,4.56
2018-12-29T07:18:26.059Z,4.67
2018-12-29T07:19:26.003Z,4.74
2018-12-29T07:20:25.953Z,4.66
2018-12-29T07:21:25.921Z,4.70
2018-12-29T07:22:25.841Z,4.67
2018-12-29T07:23:25.779Z,4.69
2018-12-29T07:24:25.730Z,4.67
2018-12-29T07:25:25.670Z,4.63
2018-12-29T07:26:25.643Z,4.64
2018-12-29T07:27:25.560Z,4.66
2018-12-29T07:28:25.502Z,4.66
2018-12-29T07:29:25.446Z,4.64
2018-12-29T07:30:25.390Z,4.69
2018-12-29T07:31:25.372Z,4.64
2018-12-29T07:32:25.281Z,4.69
2018-12-29T07:33:25.224Z,4.69
2018-12-29T07:34:25.165Z,4.70
2018-12-29T07:35:25.117Z,4.70
2018-12-29T07:36:25.079Z,4.77
2018-12-29T07:37:25.006Z,4.74
2018-12-29T07:38:24.941Z,4.74
2018-12-29T07:39:24.887Z,4.71
2018-12-29T07:40:24.833Z,4.70
2018-12-29T07:41:24.801Z,4.76
2018-12-29T07:42:24.723Z,4.73
2018-12-29T07:43:24.670Z,4.77
2018-12-29T07:44:24.611Z,4.79
2018-12-29T07:45:24.557Z,4.74
2018-12-29T07:46:24.520Z,4.79
2018-12-29T07:47:24.440Z,4.73
2018-12-29T07:48:24.389Z,4.74
2018-12-29T07:49:24.334Z,4.79
2018-12-29T07:50:24.278Z,4.73
2018-12-29T07:51:24.243Z,4.83
2018-12-29T07:52:24.159Z,4.71
2018-12-29T07:53:24.108Z,4.79
2018-12-29T07:54:24.055Z,4.85
2018-12-29T07:55:24.001Z,4.86
2018-12-29T07:56:23.968Z,4.80
2018-12-29T07:57:23.886Z,4.77
2018-12-29T07:58:23.832Z,4.83
2018-12-29T07:59:23.775Z,4.71
2018-12-29T08:00:23.720Z,4.80
2018-12-29T08:01:23.684Z,4.77
2018-12-29T08:02:23.610Z,4.77
2018-12-29T08:03:23.555Z,4.79
2018-12-29T08:04:23.486Z,4.85
2018-12-29T08:05:23.443Z,4.89
2018-12-29T08:06:23.420Z,4.86
2018-12-29T08:07:23.330Z,4.79
2018-12-29T08:08:23.276Z,4.85
2018-12-29T08:09:23.216Z,4.88
2018-12-29T08:10:23.164Z,4.85
2018-12-29T08:11:23.110Z,4.90
2018-12-29T08:12:23.070Z,4.85
2018-12-29T08:13:22.999Z,4.92
2018-12-29T08:14:22.942Z,4.88
2018-12-29T08:15:22.880Z,4.89
2018-12-29T08:16:22.833Z,4.90
2018-12-29T08:17:22.799Z,4.89
2018-12-29T08:18:22.718Z,4.86
2018-12-29T08:19:22.661Z,4.92
2018-12-29T08:20:22.607Z,4.90
2018-12-29T08:21:22.552Z,4.92
2018-12-29T08:22:24.078Z,4.89
2018-12-29T08:23:22.433Z,4.88
2018-12-29T08:24:22.386Z,4.89
2018-12-29T08:25:22.328Z,4.93
2018-12-29T08:26:22.274Z,4.92
2018-12-29T08:27:22.305Z,4.93
2018-12-29T08:28:22.165Z,4.93
2018-12-29T08:29:22.106Z,4.98
2018-12-29T08:30:22.052Z,4.99
2018-12-29T08:31:21.994Z,4.86
2018-12-29T08:32:21.963Z,4.95
2018-12-29T08:33:21.883Z,4.90
2018-12-29T08:34:21.829Z,5.06
2018-12-29T08:35:21.774Z,5.03
2018-12-29T08:36:21.718Z,5.03
2018-12-29T08:37:21.684Z,5.04
2018-12-29T08:38:21.608Z,5.03
2018-12-29T08:39:21.547Z,5.08
2018-12-29T08:40:21.495Z,5.06
2018-12-29T08:41:21.439Z,5.06
2018-12-29T08:42:21.404Z,5.11
2018-12-29T08:43:21.341Z,4.99
2018-12-29T08:44:21.277Z,5.11
2018-12-29T08:45:21.216Z,5.04
2018-12-29T08:46:21.164Z,5.11
2018-12-29T08:47:21.132Z,5.11
2018-12-29T08:48:21.052Z,5.13
2018-12-29T08:49:21.002Z,5.14
2018-12-29T08:50:20.938Z,5.14
2018-12-29T08:51:20.885Z,5.11
2018-12-29T08:52:20.854Z,5.10
2018-12-29T08:53:20.777Z,5.14
2018-12-29T08:54:20.724Z,5.14
2018-12-29T08:55:20.665Z,5.03
2018-12-29T08:56:20.612Z,5.07
2018-12-29T08:57:20.573Z,5.13
2018-12-29T08:58:20.508Z,5.17
2018-12-29T08:59:20.443Z,5.21
2018-12-29T09:00:20.392Z,5.14
2018-12-29T09:01:20.328Z,5.21
2018-12-29T09:02:20.304Z,5.17
2018-12-29T09:03:20.223Z,5.22
2018-12-29T09:04:20.165Z,5.22
2018-12-29T09:05:20.114Z,5.11
2018-12-29T09:06:20.057Z,5.24
2018-12-29T09:07:20.025Z,5.14
2018-12-29T09:08:20.031Z,5.26
2018-12-29T09:09:19.894Z,5.26
2018-12-29T09:10:19.831Z,5.25
2018-12-29T09:11:19.781Z,5.19
2018-12-29T09:12:19.751Z,5.22
2018-12-29T09:13:19.672Z,5.22
2018-12-29T09:14:19.610Z,5.29
2018-12-29T09:15:19.557Z,5.26
2018-12-29T09:16:19.501Z,5.17
2018-12-29T09:17:19.470Z,5.28
2018-12-29T09:18:19.394Z,5.24
2018-12-29T09:19:19.333Z,5.14
2018-12-29T09:20:19.296Z,5.24
2018-12-29T09:21:19.231Z,5.32
2018-12-29T09:22:19.214Z,5.32
2018-12-29T09:23:19.113Z,5.24
2018-12-29T09:24:19.060Z,5.31
2018-12-29T09:25:18.997Z,5.22
2018-12-29T09:26:18.948Z,5.33
2018-12-29T09:27:18.918Z,5.28
2018-12-29T09:28:18.832Z,5.25
2018-12-29T09:29:18.780Z,5.28
2018-12-29T09:30:18.725Z,5.28
2018-12-29T09:31:18.671Z,5.31
2018-12-29T09:32:18.639Z,5.29
2018-12-29T09:33:18.559Z,5.25
2018-12-29T09:34:22.449Z,5.25
2018-12-29T09:35:18.449Z,5.33
2018-12-29T09:36:18.393Z,5.33
2018-12-29T09:37:18.366Z,5.31
2018-12-29T09:38:18.288Z,5.35
2018-12-29T09:39:18.228Z,5.36
2018-12-29T09:40:18.174Z,5.31
2018-12-29T09:41:18.119Z,5.39
2018-12-29T09:42:18.086Z,5.33
2018-12-29T09:43:18.006Z,5.32
2018-12-29T09:44:17.957Z,5.29
2018-12-29T09:45:17.901Z,5.25
2018-12-29T09:46:17.847Z,5.31
2018-12-29T09:47:19.783Z,5.39
2018-12-29T09:48:17.730Z,5.36
2018-12-29T09:49:17.678Z,5.36
2018-12-29T09:50:17.624Z,5.32
2018-12-29T09:51:17.566Z,5.39
2018-12-29T09:52:17.511Z,5.36
2018-12-29T09:53:17.480Z,5.39
2018-12-29T09:54:17.399Z,5.35
2018-12-29T09:55:17.346Z,5.44
2018-12-29T09:56:17.291Z,5.40
2018-12-29T09:57:17.233Z,5.46
2018-12-29T09:58:17.204Z,5.49
2018-12-29T09:59:17.126Z,5.40
2018-12-29T10:00:17.065Z,5.39
2018-12-29T10:01:17.013Z,5.43
2018-12-29T10:02:16.956Z,5.50
2018-12-29T10:03:16.929Z,5.35
2018-12-29T10:04:16.849Z,5.49
2018-12-29T10:05:16.793Z,5.54
2018-12-29T10:06:16.740Z,5.53
2018-12-29T10:07:16.680Z,5.46
2018-12-29T10:08:16.647Z,5.46
2018-12-29T10:09:16.577Z,5.44
2018-12-29T10:10:16.519Z,5.54
2018-12-29T10:11:16.461Z,5.44
2018-12-29T10:12:16.411Z,5.44
2018-12-29T10:13:16.374Z,5.50
2018-12-29T10:14:16.296Z,5.53
2018-12-29T10:15:16.243Z,5.46
2018-12-29T10:16:16.185Z,5.51
2018-12-29T10:17:16.125Z,5.59
2018-12-29T10:18:16.100Z,5.57
2018-12-29T10:19:16.020Z,5.54
2018-12-29T10:20:15.963Z,5.58
2018-12-29T10:21:15.902Z,5.59
2018-12-29T10:22:15.855Z,5.58
2018-12-29T10:24:47.393Z,5.58
2018-12-29T10:25:47.301Z,5.59
2018-12-29T10:26:47.252Z,5.61
2018-12-29T10:27:47.188Z,5.59
2018-12-29T10:28:47.161Z,5.65
2018-12-29T10:29:47.084Z,5.67
2018-12-29T10:30:47.029Z,5.72
2018-12-29T10:31:46.982Z,5.76
2018-12-29T10:32:46.980Z,5.67
2018-12-29T10:33:46.982Z,5.72
2018-12-29T10:34:46.819Z,5.68
2018-12-29T10:35:46.758Z,5.76
2018-12-29T10:36:46.715Z,5.72
2018-12-29T10:37:46.643Z,5.79
2018-12-29T10:38:46.649Z,5.77
2018-12-29T10:39:46.539Z,5.83
2018-12-29T10:40:46.479Z,5.82
2018-12-29T10:41:46.425Z,5.85
2018-12-29T10:42:46.508Z,5.89
2018-12-29T10:43:46.343Z,5.89
2018-12-29T10:44:46.283Z,5.89
2018-12-29T10:45:46.211Z,5.87
2018-12-29T10:46:46.153Z,5.90
2018-12-29T10:47:46.102Z,5.87
2018-12-29T10:48:46.072Z,5.90
2018-12-29T10:49:45.992Z,5.95
2018-12-29T10:50:45.942Z,5.98
2018-12-29T10:51:45.919Z,5.97
2018-12-29T10:52:45.820Z,5.87
2018-12-29T10:53:45.796Z,6.00
2018-12-29T10:54:45.694Z,6.03
2018-12-29T10:55:45.705Z,6.04
2018-12-29T10:56:45.615Z,6.03
2018-12-29T10:57:45.583Z,6.03
2018-12-29T10:58:45.583Z,6.08
2018-12-29T10:59:45.431Z,6.05
2018-12-29T11:00:45.402Z,6.07
2018-12-29T11:01:45.326Z,6.10
2018-12-29T11:02:45.511Z,6.18
2018-12-29T11:03:45.259Z,6.08
2018-12-29T11:04:45.157Z,6.05
2018-12-29T11:05:45.107Z,6.11
2018-12-29T11:06:45.066Z,6.11
2018-12-29T11:07:44.995Z,6.11
2018-12-29T11:08:44.992Z,6.05
2018-12-29T11:09:44.888Z,6.16
2018-12-29T11:10:44.845Z,6.22
2018-12-29T11:11:44.769Z,6.11
2018-12-29T11:12:44.729Z,6.13
2018-12-29T11:13:44.677Z,6.21
2018-12-29T11:14:44.610Z,6.27
2018-12-29T11:15:44.774Z,6.21
2018-12-29T11:16:44.601Z,6.32
2018-12-29T11:17:44.452Z,6.30
2018-12-29T11:18:44.772Z,6.37
2018-12-29T11:19:44.366Z,6.21
2018-12-29T11:20:44.295Z,6.32
2018-12-29T11:21:44.286Z,6.34
2018-12-29T11:22:44.312Z,6.30
2018-12-29T11:23:44.150Z,6.26
2018-12-29T11:24:44.081Z,6.38
2018-12-29T11:25:44.091Z,6.32
2018-12-29T11:26:43.953Z,6.35
2018-12-29T11:27:43.911Z,6.42
2018-12-29T11:28:43.860Z,6.32
2018-12-29T11:29:43.820Z,6.32
2018-12-29T11:30:43.738Z,6.35
2018-12-29T11:31:43.671Z,6.35
2018-12-29T11:32:43.637Z,6.41
2018-12-29T11:33:43.604Z,6.41
2018-12-29T11:34:43.559Z,6.35
2018-12-29T11:35:43.472Z,6.38
2018-12-29T11:36:43.450Z,6.38
2018-12-29T11:37:44.134Z,6.38
2018-12-29T11:38:43.428Z,6.35
2018-12-29T11:39:43.580Z,6.42
2018-12-29T11:40:43.269Z,6.45
2018-12-29T11:41:43.207Z,6.44
2018-12-29T11:42:43.111Z,6.44
2018-12-29T11:43:43.060Z,6.47
2018-12-29T11:44:43.037Z,6.44
2018-12-29T11:45:42.903Z,6.47
2018-12-29T11:46:42.908Z,6.47
2018-12-29T11:47:49.569Z,6.47
2018-12-29T11:48:42.813Z,6.45
2018-12-29T11:49:42.702Z,6.41
2018-12-29T11:50:42.634Z,6.44
2018-12-29T11:51:42.576Z,6.42
2018-12-29T11:52:42.531Z,6.49
2018-12-29T11:53:42.477Z,6.42
2018-12-29T11:54:42.553Z,6.44
2018-12-29T11:55:42.381Z,6.45
2018-12-29T11:56:42.307Z,6.42
2018-12-29T11:57:42.269Z,6.55
2018-12-29T11:58:42.253Z,6.56
2018-12-29T11:59:42.184Z,6.48
2018-12-29T12:00:42.129Z,6.49
2018-12-29T12:01:42.039Z,6.52
2018-12-29T12:02:42.001Z,6.49
2018-12-29T12:03:41.921Z,6.52
2018-12-29T12:04:41.938Z,6.53
2018-12-29T12:05:41.869Z,6.55
2018-12-29T12:06:41.816Z,6.53
2018-12-29T12:07:41.733Z,6.56
2018-12-29T12:08:41.655Z,6.56
2018-12-29T12:09:41.625Z,6.55
2018-12-29T12:10:41.581Z,6.52
2018-12-29T12:11:41.480Z,6.49
2018-12-29T12:12:41.448Z,6.55
2018-12-29T12:13:41.421Z,6.57
2018-12-29T12:14:41.375Z,6.65
2018-12-29T12:15:41.251Z,6.60
2018-12-29T12:16:41.231Z,6.59
2018-12-29T12:17:41.205Z,6.62
2018-12-29T12:18:41.093Z,6.60
2018-12-29T12:19:41.102Z,6.55
2018-12-29T12:20:41.002Z,6.60
2018-12-29T12:21:40.946Z,6.56
2018-12-29T12:22:40.890Z,6.67
2018-12-29T12:23:40.834Z,6.62
2018-12-29T12:24:40.789Z,6.59
2018-12-29T12:25:40.740Z,6.60
2018-12-29T12:26:40.684Z,6.70
2018-12-29T12:27:40.642Z,6.60
2018-12-29T12:28:40.569Z,6.59
2018-12-29T12:29:40.648Z,6.62
2018-12-29T12:30:40.495Z,6.70
2018-12-29T12:31:40.388Z,6.63
2018-12-29T12:32:40.333Z,6.66
2018-12-29T12:33:40.273Z,6.60
2018-12-29T12:34:40.258Z,6.66
2018-12-29T12:35:40.191Z,6.63
2018-12-29T12:36:40.126Z,6.67
2018-12-29T12:37:40.111Z,6.63
2018-12-29T12:38:40.006Z,6.63
2018-12-29T12:39:39.981Z,6.65
2018-12-29T12:40:39.908Z,6.67
2018-12-29T12:41:39.848Z,6.66
2018-12-29T12:42:39.797Z,6.63
2018-12-29T12:43:39.721Z,6.71
2018-12-29T12:44:39.721Z,6.66
2018-12-29T12:45:39.679Z,6.71
2018-12-29T12:46:39.584Z,6.67
2018-12-29T12:47:39.509Z,6.63
2018-12-29T12:48:41.124Z,6.65
2018-12-29T12:49:39.400Z,6.75
2018-12-29T12:50:39.385Z,6.63
2018-12-29T12:51:39.301Z,6.67
2018-12-29T12:52:39.274Z,6.66
2018-12-29T12:53:39.258Z,6.62
2018-12-29T12:54:39.139Z,6.65
2018-12-29T12:55:39.098Z,6.67
2018-12-29T12:56:39.048Z,6.67
2018-12-29T12:57:38.994Z,6.66
2018-12-29T12:58:38.930Z,6.62
2018-12-29T12:59:38.867Z,6.70
2018-12-29T13:00:38.889Z,6.62
2018-12-29T13:01:38.746Z,6.63
2018-12-29T13:02:38.700Z,6.66
2018-12-29T13:03:38.729Z,6.71
2018-12-29T13:04:38.591Z,6.65
2018-12-29T13:05:38.565Z,6.66
2018-12-29T13:06:38.488Z,6.59
2018-12-29T13:07:38.432Z,6.62
2018-12-29T13:08:38.361Z,6.62
2018-12-29T13:09:38.422Z,6.65
2018-12-29T13:10:38.296Z,6.67
2018-12-29T13:11:38.205Z,6.62
2018-12-29T13:12:38.153Z,6.73
2018-12-29T13:13:38.122Z,6.66
2018-12-29T13:14:38.064Z,6.73
2018-12-29T13:15:38.029Z,6.70
2018-12-29T13:16:37.920Z,6.74
2018-12-29T13:17:37.879Z,6.67
2018-12-29T13:18:37.843Z,6.65
2018-12-29T13:19:37.761Z,6.71